Time;durP1;ratioP1;P1;durP2;ratioP2;P2;SDS_P1;SDS_P2;PMS_P1;PMS_P2;Temp;Humidity;BMP_temperature;BMP_pressure;BME280_temperature;BME280_humidity;BME280_pressure;Samples;Min_cycle;Max_cycle;Signal;HPM_P1;HPM_P2
2022/06/06 00:01:11;;;;;;;;;;;;;;;23.42;83.05;96793.02;594511;235;63840;-68
2022/06/06 00:03:39;;;;;;;;;;;;;;;23.41;83.04;96797.59;595611;235;65005;-68
2022/06/06 00:06:11;;;;;;;;;;;;;;;23.41;83.11;96794.91;594935;235;65443;-68
2022/06/06 00:08:40;;;;;;;;;;;;;;;23.42;83.13;96787.66;599454;235;62962;-69
2022/06/06 00:11:09;;;;;;;;;;;;;;;23.41;83.15;96786.87;594699;235;64818;-69
2022/06/06 00:13:41;;;;;;;;;;;;;;;23.41;83.05;96791.44;594538;235;63196;-69
2022/06/06 00:16:09;;;;;;;;;;;;;;;23.42;83.06;96793.02;594356;235;65444;-69
2022/06/06 00:18:36;;;;;;;;;;;;;;;23.41;83.15;96783.39;596838;235;63728;-69
2022/06/06 00:21:06;;;;;;;;;;;;;;;23.42;83.05;96783.09;599050;235;64008;-69
2022/06/06 00:23:34;;;;;;;;;;;;;;;23.42;83.16;96790.34;594567;236;64949;-69
2022/06/06 00:26:03;;;;;;;;;;;;;;;23.42;83.10;96787.66;594427;235;64740;-69
2022/06/06 00:28:31;;;;;;;;;;;;;;;23.41;83.00;96786.08;594351;235;65460;-69
2022/06/06 00:34:48;;;;;;;;;;;;;;;23.41;82.96;96781.50;594682;235;65165;-69
2022/06/06 00:36:13;;;;;;;;;;;;;;;23.42;83.05;96771.56;594458;235;65490;-68
2022/06/06 00:38:40;;;;;;;;;;;;;;;23.41;83.04;96776.14;594505;232;64790;-68
2022/06/06 00:41:08;;;;;;;;;;;;;;;23.41;82.97;96780.71;594545;238;64762;-68
2022/06/06 00:43:36;;;;;;;;;;;;;;;23.41;82.95;96780.71;598515;235;65401;-68
2022/06/06 00:46:04;;;;;;;;;;;;;;;23.40;82.90;96785.25;601804;235;64752;-68
2022/06/06 00:48:35;;;;;;;;;;;;;;;23.41;82.94;96786.87;596875;236;64476;-68
2022/06/06 00:51:14;;;;;;;;;;;;;;;23.40;82.93;96771.84;594486;232;65369;-68
2022/06/06 00:53:46;;;;;;;;;;;;;;;23.41;82.96;96772.67;594380;235;62544;-69
2022/06/06 00:56:30;;;;;;;;;;;;;;;23.40;83.04;96763.80;594543;235;62687;-69
2022/06/06 00:58:59;;;;;;;;;;;;;;;23.40;82.96;96769.16;600526;236;65299;-67
2022/06/06 01:01:27;;;;;;;;;;;;;;;23.40;82.99;96763.80;597953;236;64744;-68
2022/06/06 01:03:59;;;;;;;;;;;;;;;23.40;83.04;96755.75;597129;236;64965;-68
2022/06/06 01:06:29;;;;;;;;;;;;;;;23.41;83.02;96753.89;594774;236;65421;-68
2022/06/06 01:08:58;;;;;;;;;;;;;;;23.41;83.07;96740.48;594501;235;63274;-68
2022/06/06 01:11:25;;;;;;;;;;;;;;;23.41;83.21;96738.59;594535;235;64740;-68
2022/06/06 01:13:55;;;;;;;;;;;;;;;23.40;83.26;96728.15;594482;235;65392;-68
2022/06/06 01:16:27;;;;;;;;;;;;;;;23.40;83.21;96720.89;595397;235;62834;-68
2022/06/06 01:19:12;;;;;;;;;;;;;;;23.39;83.27;96713.95;594722;235;65620;-68
2022/06/06 01:21:45;;;;;;;;;;;;;;;23.40;83.32;96710.17;594811;236;63021;-68
2022/06/06 01:24:17;;;;;;;;;;;;;;;23.41;83.30;96716.35;595946;235;65051;-67
2022/06/06 01:27:04;;;;;;;;;;;;;;;23.40;83.26;96704.80;594593;235;64816;-67
2022/06/06 01:29:36;;;;;;;;;;;;;;;23.40;83.24;96701.33;594465;235;63043;-67
2022/06/06 01:32:08;;;;;;;;;;;;;;;23.39;83.23;96703.22;594426;235;62977;-70
2022/06/06 01:34:37;;;;;;;;;;;;;;;23.40;83.25;96687.92;594519;235;65520;-71
2022/06/06 01:37:05;;;;;;;;;;;;;;;23.40;83.28;96687.92;594537;235;65411;-71
2022/06/06 01:39:33;;;;;;;;;;;;;;;23.40;83.29;96693.29;594476;235;65198;-71
2022/06/06 01:42:08;;;;;;;;;;;;;;;23.39;83.30;96686.34;594838;235;64953;-70
2022/06/06 01:44:55;;;;;;;;;;;;;;;23.39;83.26;96681.77;594502;235;63149;-71
2022/06/06 01:47:30;;;;;;;;;;;;;;;23.40;83.23;96677.20;594440;235;62914;-71
2022/06/06 01:49:59;;;;;;;;;;;;;;;23.39;83.17;96681.77;594402;235;62678;-71
2022/06/06 01:52:27;;;;;;;;;;;;;;;23.39;83.14;96684.45;594598;236;65145;-67
2022/06/06 01:54:58;;;;;;;;;;;;;;;23.39;83.14;96675.62;594712;235;65270;-67
2022/06/06 01:57:26;;;;;;;;;;;;;;;23.39;83.20;96679.09;599842;235;63548;-67
2022/06/06 01:59:53;;;;;;;;;;;;;;;23.39;83.27;96662.21;596178;235;63254;-67
2022/06/06 02:02:21;;;;;;;;;;;;;;;23.39;83.31;96660.31;595317;236;63299;-67
2022/06/06 02:04:48;;;;;;;;;;;;;;;23.39;83.35;96662.21;594420;235;63134;-67
2022/06/06 02:07:16;;;;;;;;;;;;;;;23.39;83.25;96657.64;598055;236;63313;-67
2022/06/06 02:09:43;;;;;;;;;;;;;;;23.39;83.27;96654.16;601344;236;62173;-71
2022/06/06 02:12:11;;;;;;;;;;;;;;;23.39;83.38;96646.91;601414;236;63073;-71
2022/06/06 02:14:39;;;;;;;;;;;;;;;23.39;83.43;96627.35;603159;235;65374;-71
2022/06/06 02:17:06;;;;;;;;;;;;;;;23.39;83.48;96630.03;595357;235;65232;-71
2022/06/06 02:19:34;;;;;;;;;;;;;;;23.39;83.39;96633.50;594645;236;63094;-71
2022/06/06 02:22:02;;;;;;;;;;;;;;;23.38;83.37;96629.24;594627;235;65350;-71
2022/06/06 02:24:29;;;;;;;;;;;;;;;23.39;83.35;96636.19;594517;235;65722;-71
2022/06/06 02:26:57;;;;;;;;;;;;;;;23.40;83.30;96639.66;594469;235;65091;-70
2022/06/06 02:29:24;;;;;;;;;;;;;;;23.40;83.33;96634.30;596484;235;65364;-67
2022/06/06 02:31:52;;;;;;;;;;;;;;;23.39;83.39;96625.46;599648;235;65438;-67
2022/06/06 02:34:19;;;;;;;;;;;;;;;23.40;83.46;96626.25;595046;235;62915;-67
2022/06/06 02:36:47;;;;;;;;;;;;;;;23.39;83.35;96628.14;594514;235;65164;-67
2022/06/06 02:39:14;;;;;;;;;;;;;;;23.40;83.25;96647.70;593699;236;65491;-67
2022/06/06 02:41:42;;;;;;;;;;;;;;;23.39;83.24;96651.48;594463;235;65253;-67
2022/06/06 02:44:09;;;;;;;;;;;;;;;23.40;83.22;96671.84;594497;235;65159;-67
2022/06/06 02:46:37;;;;;;;;;;;;;;;23.39;83.23;96700.55;594475;235;63116;-67
2022/06/06 02:49:04;;;;;;;;;;;;;;;23.40;83.05;96755.75;595000;235;62976;-67
2022/06/06 02:51:32;;;;;;;;;;;;;;;23.41;82.83;96813.68;601017;236;63178;-67
2022/06/06 02:54:01;;;;;;;;;;;;;;;23.40;82.56;96852.30;601814;236;63052;-67
2022/06/06 02:56:28;;;;;;;;;;;;;;;23.41;82.42;96896.02;601805;236;65201;-68
2022/06/06 02:58:57;;;;;;;;;;;;;;;23.41;82.52;96909.44;597903;236;65280;-67
2022/06/06 03:01:24;;;;;;;;;;;;;;;23.41;82.85;96904.07;594682;236;65462;-68
2022/06/06 03:03:52;;;;;;;;;;;;;;;23.40;83.42;96875.64;594577;235;64766;-68
2022/06/06 03:06:36;;;;;;;;;;;;;;;23.39;83.80;96855.28;594816;236;65410;-68
2022/06/06 03:09:08;;;;;;;;;;;;;;;23.39;83.82;96848.03;594199;235;65310;-67
2022/06/06 03:11:54;;;;;;;;;;;;;;;23.39;83.54;96871.38;594474;235;63238;-67
2022/06/06 03:14:38;;;;;;;;;;;;;;;23.38;83.44;96857.17;593060;236;65435;-68
2022/06/06 03:22:51;;;;;;;;;;;;;;;23.37;83.87;96801.93;594432;235;65432;-69
2022/06/06 03:25:23;;;;;;;;;;;;;;;23.37;83.79;96807.30;594758;235;65562;-69
2022/06/06 03:28:01;;;;;;;;;;;;;;;23.36;83.68;96800.34;594524;235;65213;-69
2022/06/06 03:30:46;;;;;;;;;;;;;;;23.37;83.72;96787.73;596568;235;63051;-69
2022/06/06 03:33:32;;;;;;;;;;;;;;;23.37;83.68;96785.05;597247;236;65321;-69
2022/06/06 03:36:04;;;;;;;;;;;;;;;23.37;83.69;96779.69;595639;235;65191;-68
2022/06/06 03:38:36;;;;;;;;;;;;;;;23.37;83.63;96769.75;600769;235;63286;-68
2022/06/06 03:41:11;;;;;;;;;;;;;;;23.37;83.81;96750.19;583832;238;63484;-68
2022/06/06 03:43:40;;;;;;;;;;;;;;;23.37;83.89;96736.78;594852;235;65240;-68
2022/06/06 03:46:14;;;;;;;;;;;;;;;23.35;83.79;96723.66;595302;235;63509;-68
2022/06/06 03:48:45;;;;;;;;;;;;;;;23.37;83.67;96742.14;598927;235;65486;-68
2022/06/06 03:51:14;;;;;;;;;;;;;;;23.37;83.53;96752.88;598964;235;63788;-68
2022/06/06 03:53:43;;;;;;;;;;;;;;;23.37;83.38;96774.33;596328;235;65486;-68
2022/06/06 03:56:21;;;;;;;;;;;;;;;23.39;83.26;96788.24;594087;235;65573;-68
2022/06/06 03:58:49;;;;;;;;;;;;;;;23.38;83.39;96789.31;594625;236;65021;-69
2022/06/06 04:01:20;;;;;;;;;;;;;;;23.38;83.48;96800.04;594470;235;65162;-67
2022/06/06 04:03:49;;;;;;;;;;;;;;;23.38;83.49;96800.04;595374;235;65651;-68
2022/06/06 04:06:17;;;;;;;;;;;;;;;23.36;83.51;96794.98;594391;238;63265;-68
2022/06/06 04:08:45;;;;;;;;;;;;;;;23.37;83.59;96801.93;594581;238;65149;-68
2022/06/06 04:11:23;;;;;;;;;;;;;;;23.37;83.61;96793.89;594900;236;63048;-68
2022/06/06 04:13:58;;;;;;;;;;;;;;;23.37;83.68;96787.73;595058;236;63768;-67
2022/06/06 04:16:43;;;;;;;;;;;;;;;23.37;83.79;96764.39;594408;235;65522;-69
2022/06/06 04:19:14;;;;;;;;;;;;;;;23.37;83.78;96779.69;597004;236;65605;-68
2022/06/06 04:21:49;;;;;;;;;;;;;;;23.37;83.59;96793.89;597391;232;65804;-68
2022/06/06 04:24:19;;;;;;;;;;;;;;;23.36;83.55;96788.83;597922;235;63035;-68
2022/06/06 04:26:51;;;;;;;;;;;;;;;23.38;83.60;96797.36;594436;235;63215;-68
2022/06/06 04:29:22;;;;;;;;;;;;;;;23.36;83.66;96792.30;578175;238;66256;-68
2022/06/06 04:32:04;;;;;;;;;;;;;;;23.37;83.72;96793.89;595488;235;66319;-68
2022/06/06 04:34:33;;;;;;;;;;;;;;;23.37;83.78;96790.41;594476;235;65499;-68
2022/06/06 04:37:02;;;;;;;;;;;;;;;23.37;83.82;96779.69;594323;235;64988;-72
2022/06/06 04:39:31;;;;;;;;;;;;;;;23.37;83.90;96790.41;594221;235;62868;-72
2022/06/06 04:42:08;;;;;;;;;;;;;;;23.37;83.80;96801.93;594760;236;65652;-72
2022/06/06 04:44:37;;;;;;;;;;;;;;;23.37;83.70;96806.50;594678;236;62667;-72
2022/06/06 04:47:19;;;;;;;;;;;;;;;23.37;83.71;96815.34;594400;235;63096;-72
2022/06/06 04:49:47;;;;;;;;;;;;;;;23.37;83.76;96811.86;594374;235;64865;-71
2022/06/06 04:52:14;;;;;;;;;;;;;;;23.37;83.91;96809.19;599613;235;64892;-71
2022/06/06 04:54:42;;;;;;;;;;;;;;;23.36;83.93;96810.28;596566;235;65428;-71
2022/06/06 04:57:10;;;;;;;;;;;;;;;23.37;83.91;96822.59;594570;235;65459;-72
2022/06/06 04:59:38;;;;;;;;;;;;;;;23.36;83.81;96829.84;596927;235;64927;-71
2022/06/06 05:02:06;;;;;;;;;;;;;;;23.37;83.79;96836.00;601839;236;65575;-71
2022/06/06 05:04:33;;;;;;;;;;;;;;;23.37;83.77;96838.68;601787;236;63018;-71
2022/06/06 05:07:02;;;;;;;;;;;;;;;23.37;83.80;96839.47;597982;236;62833;-71
2022/06/06 05:09:40;;;;;;;;;;;;;;;23.37;83.95;96822.59;594432;236;63020;-71
2022/06/06 05:12:25;;;;;;;;;;;;;;;23.36;84.14;96819.12;595201;236;65581;-71
2022/06/06 05:15:11;;;;;;;;;;;;;;;23.37;84.07;96822.59;594647;236;62936;-72
2022/06/06 05:17:53;;;;;;;;;;;;;;;23.37;83.97;96844.05;594482;235;63305;-71
2022/06/06 05:20:22;;;;;;;;;;;;;;;23.36;83.76;96850.51;597591;235;63328;-71
2022/06/06 05:23:06;;;;;;;;;;;;;;;23.36;83.81;96847.83;599268;234;65180;-71
2022/06/06 05:25:44;;;;;;;;;;;;;;;23.36;83.97;96847.83;594237;235;65345;-71
2022/06/06 05:28:16;;;;;;;;;;;;;;;23.35;84.01;96843.53;595165;236;63264;-71
2022/06/06 05:30:48;;;;;;;;;;;;;;;23.35;84.04;96846.20;594219;235;63125;-71
2022/06/06 05:33:17;;;;;;;;;;;;;;;23.36;84.01;96850.51;594469;235;63329;-71
2022/06/06 05:36:04;;;;;;;;;;;;;;;23.36;84.05;96850.51;594423;236;65507;-71
2022/06/06 05:38:33;;;;;;;;;;;;;;;23.35;84.09;96849.69;594282;235;62764;-71
2022/06/06 05:41:20;;;;;;;;;;;;;;;23.35;84.00;96863.09;594299;235;65433;-71
2022/06/06 05:43:53;;;;;;;;;;;;;;;23.36;83.90;96880.00;594333;235;63454;-71
2022/06/06 05:46:35;;;;;;;;;;;;;;;23.36;83.90;96888.84;593585;235;65892;-71
2022/06/06 05:49:04;;;;;;;;;;;;;;;23.36;83.97;96885.36;596612;236;63394;-73
2022/06/06 05:51:49;;;;;;;;;;;;;;;23.35;84.14;96879.18;596292;235;65658;-71
2022/06/06 05:54:24;;;;;;;;;;;;;;;23.35;84.12;96875.70;594966;234;63275;-72
2022/06/06 05:56:51;;;;;;;;;;;;;;;23.35;83.31;96878.39;597146;235;63371;-70
2022/06/06 05:59:23;;;;;;;;;;;;;;;23.35;83.34;96891.80;597903;235;65613;-73
2022/06/06 06:01:55;;;;;;;;;;;;;;;23.36;84.60;96885.36;594852;238;65251;-74
2022/06/06 06:04:27;;;;;;;;;;;;;;;23.34;83.80;96880.28;582068;238;65358;-71
2022/06/06 06:07:16;;;;;;;;;;;;;;;23.36;83.18;96888.05;594640;238;62396;-72
2022/06/06 06:09:55;;;;;;;;;;;;;;;23.34;82.91;96890.21;594460;235;66081;-72
2022/06/06 06:12:25;;;;;;;;;;;;;;;23.35;83.87;96905.20;594111;235;65426;-73
2022/06/06 06:14:54;;;;;;;;;;;;;;;23.35;81.96;96910.56;600263;235;63557;-72
2022/06/06 06:17:22;;;;;;;;;;;;;;;23.36;82.31;96931.75;600528;236;62986;-75
2022/06/06 06:19:57;;;;;;;;;;;;;;;23.38;83.00;96944.84;600959;236;66260;-79
2022/06/06 06:22:26;;;;;;;;;;;;;;;23.39;82.63;96949.14;600940;236;64268;-77
2022/06/06 06:24:56;;;;;;;;;;;;;;;23.39;83.22;96954.51;600915;236;62932;-73
2022/06/06 06:27:24;;;;;;;;;;;;;;;23.39;83.57;96959.87;600951;236;65470;-72
2022/06/06 06:29:52;;;;;;;;;;;;;;;23.38;80.29;96955.58;601010;236;65793;-73
2022/06/06 06:32:23;;;;;;;;;;;;;;;23.40;81.03;96956.88;599337;236;66215;-74
2022/06/06 06:35:08;;;;;;;;;;;;;;;23.41;81.92;96946.98;597948;237;63059;-72
2022/06/06 06:37:55;;;;;;;;;;;;;;;23.41;82.35;96934.36;599313;236;65635;-71
2022/06/06 06:40:30;;;;;;;;;;;;;;;23.42;82.96;96940.52;600949;236;65158;-71
2022/06/06 06:43:10;;;;;;;;;;;;;;;23.42;83.09;96943.20;600768;236;63395;-70
2022/06/06 06:45:39;;;;;;;;;;;;;;;23.40;82.88;96940.80;601029;236;65528;-72
2022/06/06 06:48:08;;;;;;;;;;;;;;;23.41;83.04;96941.62;600969;236;63202;-72
2022/06/06 06:50:37;;;;;;;;;;;;;;;23.41;83.07;96939.73;600092;236;63096;-72
2022/06/06 06:53:09;;;;;;;;;;;;;;;23.42;83.13;96938.63;596024;236;63187;-72
2022/06/06 06:55:38;;;;;;;;;;;;;;;23.43;83.26;96940.22;599402;236;62710;-71
2022/06/06 06:58:10;;;;;;;;;;;;;;;23.43;83.38;96942.10;600948;236;63899;-69
2022/06/06 07:00:39;;;;;;;;;;;;;;;23.44;83.09;96943.72;600742;236;65487;-69
2022/06/06 07:09:11;;;;;;;;;;;;;;;23.44;83.36;96941.03;599711;236;65839;-67
2022/06/06 07:11:49;;;;;;;;;;;;;;;23.44;83.49;96944.51;599056;236;65418;-71
2022/06/06 07:14:27;;;;;;;;;;;;;;;23.44;83.34;96928.42;599351;236;63266;-70
2022/06/06 07:16:56;;;;;;;;;;;;;;;23.43;83.44;96924.13;600997;235;63253;-69
2022/06/06 07:19:25;;;;;;;;;;;;;;;23.44;83.44;96920.38;601803;235;63012;-69
2022/06/06 07:21:53;;;;;;;;;;;;;;;23.44;83.48;96925.73;600781;236;63273;-68
2022/06/06 07:24:23;;;;;;;;;;;;;;;23.46;83.46;96920.89;600511;236;63001;-69
2022/06/06 07:26:51;;;;;;;;;;;;;;;23.45;83.46;96921.95;598710;237;64131;-70
2022/06/06 07:29:20;;;;;;;;;;;;;;;23.45;83.49;96927.32;598838;237;63153;-68
2022/06/06 07:31:58;;;;;;;;;;;;;;;23.46;83.60;96930.80;599888;236;63582;-70
2022/06/06 07:34:43;;;;;;;;;;;;;;;23.46;83.52;96926.25;601021;236;63343;-70
2022/06/06 07:37:21;;;;;;;;;;;;;;;23.45;83.48;96927.32;591569;237;65505;-70
2022/06/06 07:40:07;;;;;;;;;;;;;;;23.47;83.48;96943.14;595791;235;66814;-71
2022/06/06 07:42:52;;;;;;;;;;;;;;;23.46;83.44;96938.84;601025;236;63014;-69
2022/06/06 07:45:21;;;;;;;;;;;;;;;23.47;83.49;96948.50;594591;236;65508;-70
2022/06/06 07:47:51;;;;;;;;;;;;;;;23.46;83.47;96945.03;600870;236;63321;-70
2022/06/06 07:50:23;;;;;;;;;;;;;;;23.47;83.58;96953.87;600985;236;67661;-70
2022/06/06 07:53:04;;;;;;;;;;;;;;;23.48;84.33;96952.77;598809;236;65415;-70
2022/06/06 07:55:33;;;;;;;;;;;;;;;23.46;83.95;96950.39;593169;237;65435;-71
2022/06/06 07:58:08;;;;;;;;;;;;;;;23.47;83.49;96945.82;599679;236;63028;-70
2022/06/06 08:00:36;;;;;;;;;;;;;;;23.47;83.36;96951.19;600065;236;63116;-70
2022/06/06 08:03:07;;;;;;;;;;;;;;;23.47;83.29;96951.98;600739;236;63491;-70
2022/06/06 08:05:52;;;;;;;;;;;;;;;23.48;83.30;96952.77;599295;236;62979;-70
2022/06/06 08:08:22;;;;;;;;;;;;;;;23.48;83.36;96942.83;600347;236;65591;-70
2022/06/06 08:10:50;;;;;;;;;;;;;;;23.48;83.40;96945.52;599591;236;65487;-72
2022/06/06 08:13:25;;;;;;;;;;;;;;;23.49;83.45;96940.97;600373;236;65052;-70
2022/06/06 08:15:57;;;;;;;;;;;;;;;23.48;83.49;96948.20;600676;236;63021;-69
2022/06/06 08:18:44;;;;;;;;;;;;;;;23.49;83.48;96949.02;591184;236;63330;-69
2022/06/06 08:21:22;;;;;;;;;;;;;;;23.50;83.49;96947.92;599429;236;63276;-70
2022/06/06 08:23:51;;;;;;;;;;;;;;;23.51;82.37;96937.98;599610;236;63051;-73
2022/06/06 08:26:19;;;;;;;;;;;;;;;23.49;82.99;96931.03;600470;236;65809;-73
2022/06/06 08:28:48;;;;;;;;;;;;;;;23.48;82.88;96924.05;593124;236;65403;-69
2022/06/06 08:31:16;;;;;;;;;;;;;;;23.48;82.80;96936.67;598810;236;63240;-69
2022/06/06 08:33:43;;;;;;;;;;;;;;;23.48;82.55;96939.36;600908;236;64233;-71
2022/06/06 08:36:29;;;;;;;;;;;;;;;23.48;82.24;96947.41;600941;236;65057;-71
2022/06/06 08:39:14;;;;;;;;;;;;;;;23.48;82.06;96931.31;599357;236;65392;-71
2022/06/06 08:42:00;;;;;;;;;;;;;;;23.48;81.90;96947.41;598854;236;65314;-71
2022/06/06 08:44:29;;;;;;;;;;;;;;;23.48;81.97;96948.20;599394;236;65231;-71
2022/06/06 08:47:04;;;;;;;;;;;;;;;23.48;81.93;96952.77;598774;236;63292;-71
2022/06/06 08:52:23;;;;;;;;;;;;;;;23.49;81.92;96954.38;593273;236;65400;-71
2022/06/06 08:55:01;;;;;;;;;;;;;;;23.48;81.90;96955.45;598972;236;63141;-69
2022/06/06 08:57:33;;;;;;;;;;;;;;;23.48;81.95;96958.92;600511;236;64205;-69
2022/06/06 09:00:19;;;;;;;;;;;;;;;23.48;81.90;96955.45;594855;235;65287;-69
2022/06/06 09:11:27;;;;;;;;;;;;;;;23.60;82.08;96963.89;625818;219;115203;-74
2022/06/06 09:14:00;;;;;;;;;;;;;;;23.46;82.15;96961.12;620254;229;64995;-73
2022/06/06 09:16:29;;;;;;;;;;;;;;;23.45;82.69;96956.03;620363;229;64560;-74
2022/06/06 09:18:58;;;;;;;;;;;;;;;23.45;82.91;96958.71;620354;229;64091;-73
2022/06/06 09:21:33;;;;;;;;;;;;;;;23.45;83.03;96958.71;620235;229;64885;-71
2022/06/06 09:24:05;;;;;;;;;;;;;;;23.44;83.00;96955.23;620138;229;64471;-75
2022/06/06 09:26:34;;;;;;;;;;;;;;;23.45;82.99;96947.98;620369;229;64005;-73
2022/06/06 09:29:09;;;;;;;;;;;;;;;23.46;82.92;96944.20;620349;229;64868;-74
2022/06/06 09:31:55;;;;;;;;;;;;;;;23.48;83.07;96942.04;620381;229;62203;-74
2022/06/06 09:34:39;;;;;;;;;;;;;;;23.48;83.14;96942.04;620376;229;61958;-74
2022/06/06 09:37:29;;;;;;;;;;;;;;;23.49;83.26;96951.70;620223;229;62685;-73
2022/06/06 09:39:55;;;;;;;;;;;;;;;23.48;83.43;96953.56;620065;229;62148;-73
2022/06/06 09:42:24;;;;;;;;;;;;;;;23.49;83.41;96946.34;620335;229;62085;-73
2022/06/06 09:44:57;;;;;;;;;;;;;;;23.49;83.33;96949.81;617385;229;62810;-71
2022/06/06 09:47:38;;;;;;;;;;;;;;;23.49;83.32;96949.81;612894;231;64432;-74
2022/06/06 09:50:24;;;;;;;;;;;;;;;23.49;83.29;96954.38;611786;231;64409;-71
2022/06/06 09:52:56;;;;;;;;;;;;;;;23.49;83.34;96965.91;613054;231;65052;-71
2022/06/06 10:01:04;;;;;;;;;;;;;;;23.50;83.67;96972.06;613026;231;63095;-73
2022/06/06 10:03:52;;;;;;;;;;;;;;;23.49;82.80;96968.59;612960;231;64434;-73
2022/06/06 10:06:39;;;;;;;;;;;;;;;23.50;83.40;96958.65;612934;231;64268;-74
2022/06/06 10:09:14;;;;;;;;;;;;;;;23.51;80.66;96972.85;612548;231;62817;-72
2022/06/06 10:11:46;;;;;;;;;;;;;;;23.51;80.91;96967.48;612057;231;62191;-73
2022/06/06 10:14:21;;;;;;;;;;;;;;;23.51;81.99;96965.59;613037;231;64374;-73
2022/06/06 10:16:51;;;;;;;;;;;;;;;23.51;82.23;96962.92;612489;231;65091;-70
2022/06/06 10:19:35;;;;;;;;;;;;;;;23.50;82.37;96961.33;612910;231;62298;-71
2022/06/06 10:22:05;;;;;;;;;;;;;;;23.51;82.43;96965.59;612826;231;64359;-70
2022/06/06 10:24:37;;;;;;;;;;;;;;;23.51;82.45;96970.97;612855;231;65108;-70
2022/06/06 10:27:06;;;;;;;;;;;;;;;23.51;82.48;96959.44;612816;231;64590;-73
2022/06/06 10:32:34;;;;;;;;;;;;;;;23.51;82.56;96962.92;612841;231;65396;-72
2022/06/06 10:35:20;;;;;;;;;;;;;;;23.52;82.62;96961.03;611655;231;64835;-72
2022/06/06 10:37:49;;;;;;;;;;;;;;;23.51;82.70;96962.92;612885;231;62082;-72
2022/06/06 10:40:30;;;;;;;;;;;;;;;23.52;82.71;96963.70;612431;231;62974;-71
2022/06/06 10:43:02;;;;;;;;;;;;;;;23.51;82.75;96968.28;612363;231;62199;-76
2022/06/06 10:45:40;;;;;;;;;;;;;;;23.51;82.78;96962.92;612189;231;65297;-72
2022/06/06 10:48:12;;;;;;;;;;;;;;;23.51;82.78;96965.59;612147;231;62883;-73
2022/06/06 10:51:36;;;;;;;;;;;;;;;23.51;82.83;96962.13;612314;231;62513;-72
2022/06/06 10:53:17;;;;;;;;;;;;;;;23.52;82.83;96961.03;611020;231;62097;-71
2022/06/06 10:56:02;;;;;;;;;;;;;;;23.52;82.85;96969.08;612166;231;62747;-71
2022/06/06 10:58:34;;;;;;;;;;;;;;;23.52;82.91;96971.75;612818;231;65588;-74
2022/06/06 11:01:15;;;;;;;;;;;;;;;23.52;83.04;96977.13;612851;231;64477;-72
2022/06/06 11:03:44;;;;;;;;;;;;;;;23.52;83.39;96977.13;612381;231;65012;-72
2022/06/06 11:06:31;;;;;;;;;;;;;;;23.52;83.35;96979.80;612827;231;64643;-72
2022/06/06 11:09:03;;;;;;;;;;;;;;;23.51;83.47;96980.90;612268;231;62923;-75
2022/06/06 11:11:49;;;;;;;;;;;;;;;23.52;83.54;96979.80;612378;231;65073;-74
2022/06/06 11:14:24;;;;;;;;;;;;;;;23.52;83.52;96982.48;612341;231;64975;-72
2022/06/06 11:17:10;;;;;;;;;;;;;;;23.50;83.55;96980.11;612312;231;64336;-74
2022/06/06 11:19:56;;;;;;;;;;;;;;;23.52;83.57;96980.63;612386;231;65180;-73
2022/06/06 11:22:25;;;;;;;;;;;;;;;23.52;83.54;96987.84;612344;231;61794;-73
2022/06/06 11:24:54;;;;;;;;;;;;;;;23.53;83.48;96984.09;612376;229;65329;-75
2022/06/06 11:27:26;;;;;;;;;;;;;;;23.52;83.49;96974.44;612438;231;65095;-73
2022/06/06 11:30:14;;;;;;;;;;;;;;;23.52;81.77;96971.75;612329;231;62270;-73
2022/06/06 11:32:42;;;;;;;;;;;;;;;23.52;82.43;96975.27;612388;231;61982;-69
2022/06/06 11:35:17;;;;;;;;;;;;;;;23.53;82.85;96976.84;612021;231;65869;-68
2022/06/06 11:37:52;;;;;;;;;;;;;;;23.52;83.11;96977.13;612332;231;64624;-69
2022/06/06 11:40:23;;;;;;;;;;;;;;;23.51;83.03;96972.85;612018;231;64251;-69
2022/06/06 11:42:52;;;;;;;;;;;;;;;23.52;83.24;96961.03;611988;231;63697;-69
2022/06/06 11:45:31;;;;;;;;;;;;;;;23.52;83.22;96963.70;612057;231;64480;-68
2022/06/06 11:48:15;;;;;;;;;;;;;;;23.53;83.31;96952.70;612375;231;64214;-68
2022/06/06 11:50:50;;;;;;;;;;;;;;;23.52;83.40;96948.44;612391;231;65094;-68
2022/06/06 11:53:29;;;;;;;;;;;;;;;23.52;83.31;96943.08;612368;231;64617;-68
2022/06/06 11:56:00;;;;;;;;;;;;;;;23.51;83.34;96941.45;612355;231;62897;-68
2022/06/06 11:58:46;;;;;;;;;;;;;;;23.52;83.40;96935.03;612357;231;65207;-68
2022/06/06 12:01:24;;;;;;;;;;;;;;;23.52;83.41;96926.16;612402;231;63275;-69
2022/06/06 12:04:10;;;;;;;;;;;;;;;23.52;83.40;96924.30;612378;231;65261;-68
2022/06/06 12:06:55;;;;;;;;;;;;;;;23.52;83.39;96920.80;612296;231;61855;-68
2022/06/06 12:09:38;;;;;;;;;;;;;;;23.51;83.33;96920.00;616814;229;65645;-68
2022/06/06 12:12:10;;;;;;;;;;;;;;;23.51;83.37;96913.84;610194;232;64486;-68
2022/06/06 12:14:51;;;;;;;;;;;;;;;23.52;83.40;96915.43;610112;232;65328;-68
2022/06/06 12:17:35;;;;;;;;;;;;;;;23.51;83.41;96913.84;610262;232;62280;-68
2022/06/06 12:20:21;;;;;;;;;;;;;;;23.52;83.42;96921.62;609770;232;64508;-68
2022/06/06 12:22:53;;;;;;;;;;;;;;;23.52;83.37;96920.80;610269;232;65133;-69
2022/06/06 12:25:39;;;;;;;;;;;;;;;23.52;83.41;96910.06;610014;232;62488;-69
2022/06/06 12:28:26;;;;;;;;;;;;;;;23.51;83.44;96909.27;610187;232;64505;-69
2022/06/06 12:31:12;;;;;;;;;;;;;;;23.52;83.51;96902.84;610241;232;65221;-69
2022/06/06 12:33:50;;;;;;;;;;;;;;;23.51;83.49;96909.27;610178;232;62099;-68
2022/06/06 12:36:22;;;;;;;;;;;;;;;23.52;83.49;96904.70;610067;232;64205;-70
2022/06/06 12:38:51;;;;;;;;;;;;;;;23.51;83.51;96901.23;609860;232;63202;-70
2022/06/06 12:41:20;;;;;;;;;;;;;;;23.50;83.52;96902.33;609303;232;62215;-70
2022/06/06 12:44:02;;;;;;;;;;;;;;;23.52;83.51;96904.70;610234;232;62105;-69
2022/06/06 12:46:47;;;;;;;;;;;;;;;23.52;83.48;96907.38;610255;232;67617;-69
2022/06/06 12:49:22;;;;;;;;;;;;;;;23.52;83.52;96902.02;610185;232;64656;-68
2022/06/06 12:52:08;;;;;;;;;;;;;;;23.52;83.50;96899.33;610242;232;62348;-69
2022/06/06 12:57:23;;;;;;;;;;;;;;;23.52;83.47;96897.48;610212;232;62272;-69
2022/06/06 13:00:10;;;;;;;;;;;;;;;23.51;83.52;96898.55;610101;232;62092;-68
2022/06/06 13:02:43;;;;;;;;;;;;;;;23.51;83.54;96893.17;610176;232;63069;-69
2022/06/06 13:05:15;;;;;;;;;;;;;;;23.52;83.46;96894.80;610284;232;65767;-68
2022/06/06 13:07:53;;;;;;;;;;;;;;;23.53;83.45;96893.70;610204;232;61894;-69
2022/06/06 13:10:39;;;;;;;;;;;;;;;23.51;83.44;96885.13;602273;232;65105;-69
2022/06/06 13:13:10;;;;;;;;;;;;;;;23.52;83.49;96881.38;610133;232;64446;-68
2022/06/06 13:15:39;;;;;;;;;;;;;;;23.52;83.48;96888.61;609871;232;64137;-69
2022/06/06 13:18:08;;;;;;;;;;;;;;;23.51;83.47;96893.17;610089;232;65170;-68
2022/06/06 13:20:40;;;;;;;;;;;;;;;23.53;83.42;96895.59;610397;232;64438;-72
2022/06/06 13:23:15;;;;;;;;;;;;;;;23.52;82.44;96885.92;610402;232;64310;-72
2022/06/06 13:26:00;;;;;;;;;;;;;;;23.52;82.67;96883.24;609895;232;64983;-72
2022/06/06 13:28:29;;;;;;;;;;;;;;;23.53;82.95;96892.91;610331;232;62188;-72
2022/06/06 13:30:58;;;;;;;;;;;;;;;23.53;82.97;96890.22;610288;232;62196;-72
2022/06/06 13:33:28;;;;;;;;;;;;;;;23.52;82.97;96900.16;609993;232;62735;-72
2022/06/06 13:36:00;;;;;;;;;;;;;;;23.52;83.05;96891.28;607711;229;63048;-72
2022/06/06 13:38:38;;;;;;;;;;;;;;;23.51;83.09;96893.17;608602;233;64868;-72
2022/06/06 13:41:10;;;;;;;;;;;;;;;23.51;83.06;96893.17;608472;231;65202;-72
2022/06/06 13:43:39;;;;;;;;;;;;;;;23.52;83.08;96900.16;608509;231;65702;-73
2022/06/06 13:46:18;;;;;;;;;;;;;;;23.53;83.11;96900.95;608520;233;65101;-73
2022/06/06 13:48:47;;;;;;;;;;;;;;;23.51;83.06;96893.17;608200;231;64926;-73
2022/06/06 13:51:22;;;;;;;;;;;;;;;23.52;83.16;96894.80;608439;233;66974;-73
2022/06/06 13:53:54;;;;;;;;;;;;;;;23.52;83.13;96893.97;608470;231;65029;-73
2022/06/06 13:56:23;;;;;;;;;;;;;;;23.52;83.08;96884.06;608598;231;64874;-73
2022/06/06 13:58:52;;;;;;;;;;;;;;;23.52;83.05;96884.06;608589;231;65621;-73